sensor_id;sensor_type;location;lat;lon;timestamp;P1;durP1;ratioP1;P2;durP2;ratioP2
54545;SDS011;40444;45.184;9.850;2023-12-04T16:23:39;33.22;;;22.50;;
54545;SDS011;40444;45.184;9.850;2023-12-04T16:26:09;37.67;;;25.92;;
54545;SDS011;40444;45.184;9.850;2023-12-04T16:28:39;35.25;;;24.23;;
54545;SDS011;40444;45.184;9.850;2023-12-04T16:31:07;33.03;;;23.92;;
54545;SDS011;40444;45.184;9.850;2023-12-04T16:33:36;32.13;;;22.02;;
54545;SDS011;40444;45.184;9.850;2023-12-04T16:36:05;31.02;;;22.38;;
54545;SDS011;40444;45.184;9.850;2023-12-04T16:38:34;27.52;;;19.48;;
54545;SDS011;40444;45.184;9.850;2023-12-04T16:41:03;29.50;;;20.08;;
54545;SDS011;40444;45.184;9.850;2023-12-04T16:43:32;26.77;;;19.20;;
54545;SDS011;40444;45.184;9.850;2023-12-04T16:46:01;25.23;;;18.17;;
54545;SDS011;40444;45.184;9.850;2023-12-04T16:48:29;26.70;;;18.45;;
54545;SDS011;40444;45.184;9.850;2023-12-04T16:50:58;25.90;;;17.85;;
54545;SDS011;40444;45.184;9.850;2023-12-04T16:53:26;25.10;;;17.92;;
54545;SDS011;40444;45.184;9.850;2023-12-04T16:55:55;27.35;;;17.20;;
54545;SDS011;40444;45.184;9.850;2023-12-04T16:58:24;22.98;;;17.27;;
54545;SDS011;40444;45.184;9.850;2023-12-04T17:00:53;27.80;;;17.55;;
54545;SDS011;40444;45.184;9.850;2023-12-04T17:03:22;26.27;;;17.05;;
54545;SDS011;40444;45.184;9.850;2023-12-04T17:05:51;22.15;;;16.67;;
54545;SDS011;40444;45.184;9.850;2023-12-04T17:08:19;21.42;;;16.05;;
54545;SDS011;40444;45.184;9.850;2023-12-04T17:10:49;22.02;;;15.93;;
54545;SDS011;40444;45.184;9.850;2023-12-04T17:13:21;20.33;;;15.63;;
54545;SDS011;40444;45.184;9.850;2023-12-04T17:15:49;21.98;;;16.52;;
54545;SDS011;40444;45.184;9.850;2023-12-04T17:18:17;19.85;;;14.65;;
54545;SDS011;40444;45.184;9.850;2023-12-04T17:20:45;20.80;;;16.20;;
54545;SDS011;40444;45.184;9.850;2023-12-04T17:23:14;22.70;;;15.88;;
54545;SDS011;40444;45.184;9.850;2023-12-04T17:25:42;21.00;;;15.15;;
54545;SDS011;40444;45.184;9.850;2023-12-04T17:28:11;18.75;;;14.73;;
54545;SDS011;40444;45.184;9.850;2023-12-04T17:30:40;20.45;;;15.18;;
54545;SDS011;40444;45.184;9.850;2023-12-04T17:33:09;22.85;;;16.25;;
54545;SDS011;40444;45.184;9.850;2023-12-04T17:35:38;17.98;;;14.43;;
54545;SDS011;40444;45.184;9.850;2023-12-04T17:38:07;23.40;;;16.00;;
54545;SDS011;40444;45.184;9.850;2023-12-04T17:40:35;21.52;;;14.95;;
54545;SDS011;40444;45.184;9.850;2023-12-04T17:43:04;19.55;;;14.07;;
54545;SDS011;40444;45.184;9.850;2023-12-04T17:45:32;21.33;;;15.98;;
54545;SDS011;40444;45.184;9.850;2023-12-04T17:48:01;21.98;;;15.85;;
54545;SDS011;40444;45.184;9.850;2023-12-04T17:50:31;21.10;;;15.80;;
54545;SDS011;40444;45.184;9.850;2023-12-04T17:53:00;19.45;;;15.40;;
54545;SDS011;40444;45.184;9.850;2023-12-04T17:55:29;22.13;;;15.10;;
54545;SDS011;40444;45.184;9.850;2023-12-04T17:58:01;19.55;;;14.95;;
54545;SDS011;40444;45.184;9.850;2023-12-04T18:00:30;21.08;;;15.60;;
54545;SDS011;40444;45.184;9.850;2023-12-04T18:02:59;20.30;;;15.52;;
54545;SDS011;40444;45.184;9.850;2023-12-04T18:05:27;20.23;;;16.00;;
54545;SDS011;40444;45.184;9.850;2023-12-04T18:07:55;22.98;;;17.08;;
54545;SDS011;40444;45.184;9.850;2023-12-04T18:10:25;22.95;;;16.23;;
54545;SDS011;40444;45.184;9.850;2023-12-04T18:12:54;21.75;;;16.60;;
54545;SDS011;40444;45.184;9.850;2023-12-04T18:15:23;20.90;;;16.08;;
54545;SDS011;40444;45.184;9.850;2023-12-04T18:17:51;22.75;;;16.35;;
54545;SDS011;40444;45.184;9.850;2023-12-04T18:20:20;18.88;;;15.00;;
54545;SDS011;40444;45.184;9.850;2023-12-04T18:22:48;25.52;;;16.27;;
54545;SDS011;40444;45.184;9.850;2023-12-04T18:25:20;18.65;;;14.52;;
54545;SDS011;40444;45.184;9.850;2023-12-04T18:27:49;19.50;;;14.32;;
54545;SDS011;40444;45.184;9.850;2023-12-04T18:30:18;19.45;;;14.00;;
54545;SDS011;40444;45.184;9.850;2023-12-04T18:32:48;18.45;;;14.13;;
54545;SDS011;40444;45.184;9.850;2023-12-04T18:35:17;22.17;;;14.68;;
54545;SDS011;40444;45.184;9.850;2023-12-04T18:40:28;18.83;;;13.38;;
54545;SDS011;40444;45.184;9.850;2023-12-04T18:42:56;17.98;;;14.02;;
54545;SDS011;40444;45.184;9.850;2023-12-04T18:45:27;17.75;;;13.73;;
54545;SDS011;40444;45.184;9.850;2023-12-04T18:47:58;19.38;;;13.95;;
54545;SDS011;40444;45.184;9.850;2023-12-04T18:50:29;19.88;;;14.68;;
54545;SDS011;40444;45.184;9.850;2023-12-04T18:53:00;21.30;;;15.07;;
54545;SDS011;40444;45.184;9.850;2023-12-04T18:55:30;20.15;;;14.45;;
54545;SDS011;40444;45.184;9.850;2023-12-04T18:57:58;20.80;;;14.57;;
54545;SDS011;40444;45.184;9.850;2023-12-04T19:00:27;19.80;;;15.35;;
54545;SDS011;40444;45.184;9.850;2023-12-04T19:02:56;20.85;;;15.15;;
54545;SDS011;40444;45.184;9.850;2023-12-04T19:05:25;19.77;;;15.27;;
54545;SDS011;40444;45.184;9.850;2023-12-04T19:07:55;20.80;;;14.80;;
54545;SDS011;40444;45.184;9.850;2023-12-04T19:10:24;17.85;;;14.60;;
54545;SDS011;40444;45.184;9.850;2023-12-04T19:13:37;20.17;;;15.10;;
54545;SDS011;40444;45.184;9.850;2023-12-04T19:16:06;18.08;;;14.23;;
54545;SDS011;40444;45.184;9.850;2023-12-04T19:18:34;19.50;;;14.60;;
54545;SDS011;40444;45.184;9.850;2023-12-04T19:21:06;20.33;;;14.68;;
54545;SDS011;40444;45.184;9.850;2023-12-04T19:23:35;19.73;;;15.10;;
54545;SDS011;40444;45.184;9.850;2023-12-04T19:26:05;20.33;;;14.93;;
54545;SDS011;40444;45.184;9.850;2023-12-04T19:28:34;21.75;;;14.98;;
54545;SDS011;40444;45.184;9.850;2023-12-04T19:31:05;21.30;;;14.90;;
54545;SDS011;40444;45.184;9.850;2023-12-04T19:33:34;20.40;;;13.55;;
54545;SDS011;40444;45.184;9.850;2023-12-04T19:36:03;20.02;;;14.07;;
54545;SDS011;40444;45.184;9.850;2023-12-04T19:38:33;20.83;;;15.02;;
54545;SDS011;40444;45.184;9.850;2023-12-04T19:41:04;19.50;;;14.90;;
54545;SDS011;40444;45.184;9.850;2023-12-04T19:43:33;20.85;;;14.60;;
54545;SDS011;40444;45.184;9.850;2023-12-04T19:46:02;20.17;;;15.27;;
54545;SDS011;40444;45.184;9.850;2023-12-04T19:48:31;22.92;;;15.60;;
54545;SDS011;40444;45.184;9.850;2023-12-04T19:51:04;23.55;;;15.30;;
54545;SDS011;40444;45.184;9.850;2023-12-04T19:53:33;21.73;;;13.88;;
54545;SDS011;40444;45.184;9.850;2023-12-04T19:56:01;20.38;;;14.95;;
54545;SDS011;40444;45.184;9.850;2023-12-04T19:58:30;20.85;;;15.45;;
54545;SDS011;40444;45.184;9.850;2023-12-04T20:00:58;19.63;;;14.95;;
54545;SDS011;40444;45.184;9.850;2023-12-04T20:03:27;21.65;;;15.10;;
54545;SDS011;40444;45.184;9.850;2023-12-04T20:05:56;20.17;;;14.48;;
54545;SDS011;40444;45.184;9.850;2023-12-04T20:08:24;20.42;;;14.70;;
54545;SDS011;40444;45.184;9.850;2023-12-04T20:10:52;21.45;;;15.18;;
54545;SDS011;40444;45.184;9.850;2023-12-04T20:13:20;23.15;;;17.13;;
54545;SDS011;40444;45.184;9.850;2023-12-04T20:15:49;21.83;;;15.23;;
54545;SDS011;40444;45.184;9.850;2023-12-04T20:18:17;21.65;;;15.35;;
54545;SDS011;40444;45.184;9.850;2023-12-04T20:20:46;20.67;;;15.75;;
54545;SDS011;40444;45.184;9.850;2023-12-04T20:23:14;19.77;;;14.90;;
54545;SDS011;40444;45.184;9.850;2023-12-04T20:25:45;21.52;;;15.60;;
54545;SDS011;40444;45.184;9.850;2023-12-04T20:28:13;21.05;;;15.85;;
54545;SDS011;40444;45.184;9.850;2023-12-04T20:30:44;37.03;;;23.60;;
54545;SDS011;40444;45.184;9.850;2023-12-04T20:33:13;42.05;;;24.90;;
54545;SDS011;40444;45.184;9.850;2023-12-04T20:35:49;62.63;;;33.13;;
54545;SDS011;40444;45.184;9.850;2023-12-04T20:38:19;64.78;;;36.75;;
54545;SDS011;40444;45.184;9.850;2023-12-04T20:40:47;44.53;;;24.73;;
54545;SDS011;40444;45.184;9.850;2023-12-04T20:43:20;27.73;;;19.35;;
54545;SDS011;40444;45.184;9.850;2023-12-04T20:45:49;28.13;;;18.83;;
54545;SDS011;40444;45.184;9.850;2023-12-04T20:48:18;26.67;;;19.88;;
54545;SDS011;40444;45.184;9.850;2023-12-04T20:50:46;27.95;;;19.75;;
54545;SDS011;40444;45.184;9.850;2023-12-04T20:53:15;37.10;;;27.33;;
54545;SDS011;40444;45.184;9.850;2023-12-04T20:55:44;25.73;;;18.90;;
54545;SDS011;40444;45.184;9.850;2023-12-04T20:58:16;24.58;;;17.42;;
54545;SDS011;40444;45.184;9.850;2023-12-04T21:00:45;26.83;;;19.08;;
54545;SDS011;40444;45.184;9.850;2023-12-04T21:03:13;25.95;;;17.85;;
54545;SDS011;40444;45.184;9.850;2023-12-04T21:05:43;22.42;;;17.02;;
54545;SDS011;40444;45.184;9.850;2023-12-04T21:08:11;24.10;;;17.92;;
54545;SDS011;40444;45.184;9.850;2023-12-04T21:10:40;25.02;;;18.42;;
54545;SDS011;40444;45.184;9.850;2023-12-04T21:13:08;26.00;;;18.42;;
54545;SDS011;40444;45.184;9.850;2023-12-04T21:15:37;24.13;;;17.75;;
54545;SDS011;40444;45.184;9.850;2023-12-04T21:18:07;22.63;;;17.02;;
54545;SDS011;40444;45.184;9.850;2023-12-04T21:20:36;22.67;;;16.80;;
54545;SDS011;40444;45.184;9.850;2023-12-04T21:23:05;21.80;;;16.13;;
54545;SDS011;40444;45.184;9.850;2023-12-04T21:25:37;25.20;;;16.85;;
54545;SDS011;40444;45.184;9.850;2023-12-04T21:28:05;24.02;;;17.08;;
54545;SDS011;40444;45.184;9.850;2023-12-04T21:30:34;23.10;;;16.33;;
54545;SDS011;40444;45.184;9.850;2023-12-04T21:33:04;21.73;;;16.70;;
54545;SDS011;40444;45.184;9.850;2023-12-04T21:35:34;24.95;;;17.48;;
54545;SDS011;40444;45.184;9.850;2023-12-04T21:38:06;25.35;;;17.33;;
54545;SDS011;40444;45.184;9.850;2023-12-04T21:40:34;24.25;;;17.55;;
54545;SDS011;40444;45.184;9.850;2023-12-04T21:43:03;28.00;;;18.77;;
54545;SDS011;40444;45.184;9.850;2023-12-04T21:45:31;25.13;;;18.02;;
54545;SDS011;40444;45.184;9.850;2023-12-04T21:48:00;25.10;;;17.40;;
54545;SDS011;40444;45.184;9.850;2023-12-04T21:50:29;25.90;;;18.17;;
54545;SDS011;40444;45.184;9.850;2023-12-04T21:52:58;27.25;;;18.65;;
54545;SDS011;40444;45.184;9.850;2023-12-04T21:55:27;26.45;;;18.83;;
54545;SDS011;40444;45.184;9.850;2023-12-04T21:57:56;26.90;;;19.25;;
54545;SDS011;40444;45.184;9.850;2023-12-04T22:00:25;26.27;;;18.58;;
54545;SDS011;40444;45.184;9.850;2023-12-04T22:02:54;27.05;;;19.65;;
54545;SDS011;40444;45.184;9.850;2023-12-04T22:05:22;23.27;;;18.38;;
54545;SDS011;40444;45.184;9.850;2023-12-04T22:07:51;26.67;;;18.85;;
54545;SDS011;40444;45.184;9.850;2023-12-04T22:10:19;27.40;;;18.65;;
54545;SDS011;40444;45.184;9.850;2023-12-04T22:12:48;27.85;;;19.05;;
54545;SDS011;40444;45.184;9.850;2023-12-04T22:15:17;26.08;;;17.73;;
54545;SDS011;40444;45.184;9.850;2023-12-04T22:17:45;25.98;;;18.42;;
54545;SDS011;40444;45.184;9.850;2023-12-04T22:20:14;28.67;;;17.92;;
54545;SDS011;40444;45.184;9.850;2023-12-04T22:22:42;25.40;;;17.38;;
54545;SDS011;40444;45.184;9.850;2023-12-04T22:25:11;26.75;;;17.95;;
54545;SDS011;40444;45.184;9.850;2023-12-04T22:27:41;25.77;;;17.50;;
54545;SDS011;40444;45.184;9.850;2023-12-04T22:30:11;25.70;;;17.45;;
54545;SDS011;40444;45.184;9.850;2023-12-04T22:32:40;27.23;;;17.85;;
54545;SDS011;40444;45.184;9.850;2023-12-04T22:35:08;28.10;;;18.70;;
54545;SDS011;40444;45.184;9.850;2023-12-04T22:37:37;28.48;;;19.38;;
54545;SDS011;40444;45.184;9.850;2023-12-04T22:40:05;23.80;;;17.20;;
54545;SDS011;40444;45.184;9.850;2023-12-04T22:42:35;26.58;;;18.63;;
54545;SDS011;40444;45.184;9.850;2023-12-04T22:45:04;28.10;;;19.08;;
54545;SDS011;40444;45.184;9.850;2023-12-04T22:47:33;26.83;;;18.13;;
54545;SDS011;40444;45.184;9.850;2023-12-04T22:50:01;29.25;;;18.48;;
54545;SDS011;40444;45.184;9.850;2023-12-04T22:52:31;26.30;;;19.17;;
54545;SDS011;40444;45.184;9.850;2023-12-04T22:54:59;30.10;;;18.88;;
54545;SDS011;40444;45.184;9.850;2023-12-04T22:57:29;26.58;;;17.48;;
54545;SDS011;40444;45.184;9.850;2023-12-04T22:59:58;26.63;;;17.75;;
54545;SDS011;40444;45.184;9.850;2023-12-04T23:02:27;23.25;;;16.52;;
54545;SDS011;40444;45.184;9.850;2023-12-04T23:04:56;24.63;;;16.92;;
54545;SDS011;40444;45.184;9.850;2023-12-04T23:07:29;26.50;;;17.90;;
54545;SDS011;40444;45.184;9.850;2023-12-04T23:09:58;29.23;;;18.95;;
54545;SDS011;40444;45.184;9.850;2023-12-04T23:12:42;25.70;;;17.73;;
54545;SDS011;40444;45.184;9.850;2023-12-04T23:15:10;28.98;;;18.55;;
54545;SDS011;40444;45.184;9.850;2023-12-04T23:17:39;26.73;;;17.83;;
54545;SDS011;40444;45.184;9.850;2023-12-04T23:20:07;28.45;;;18.73;;
54545;SDS011;40444;45.184;9.850;2023-12-04T23:22:37;29.95;;;18.95;;
54545;SDS011;40444;45.184;9.850;2023-12-04T23:25:06;27.83;;;18.50;;
54545;SDS011;40444;45.184;9.850;2023-12-04T23:27:35;28.02;;;18.48;;
54545;SDS011;40444;45.184;9.850;2023-12-04T23:30:05;28.25;;;18.40;;
54545;SDS011;40444;45.184;9.850;2023-12-04T23:32:34;28.27;;;18.85;;
54545;SDS011;40444;45.184;9.850;2023-12-04T23:35:03;29.63;;;18.67;;
54545;SDS011;40444;45.184;9.850;2023-12-04T23:37:32;28.20;;;18.33;;
54545;SDS011;40444;45.184;9.850;2023-12-04T23:40:02;30.20;;;19.30;;
54545;SDS011;40444;45.184;9.850;2023-12-04T23:42:30;31.80;;;20.33;;
54545;SDS011;40444;45.184;9.850;2023-12-04T23:44:59;30.60;;;20.08;;
54545;SDS011;40444;45.184;9.850;2023-12-04T23:47:28;31.73;;;19.40;;
54545;SDS011;40444;45.184;9.850;2023-12-04T23:49:56;33.45;;;21.10;;
54545;SDS011;40444;45.184;9.850;2023-12-04T23:52:24;28.00;;;18.58;;
54545;SDS011;40444;45.184;9.850;2023-12-04T23:54:53;27.85;;;19.50;;
54545;SDS011;40444;45.184;9.850;2023-12-04T23:57:22;30.35;;;19.23;;
54545;SDS011;40444;45.184;9.850;2023-12-04T23:59:50;28.27;;;18.05;;
